createdAt,value
2022-11-20T00:00:18.478Z,6.90
2022-11-20T00:02:45.035Z,6.68
2022-11-20T00:05:11.615Z,6.55
2022-11-20T00:07:38.095Z,6.40
2022-11-20T00:10:04.984Z,5.95
2022-11-20T00:12:32.047Z,5.90
2022-11-20T00:14:58.527Z,5.78
2022-11-20T00:17:25.031Z,5.45
2022-11-20T00:19:51.527Z,5.45
2022-11-20T00:22:18.143Z,4.95
2022-11-20T00:24:44.726Z,4.93
2022-11-20T00:27:11.235Z,5.13
2022-11-20T00:29:37.759Z,4.43
2022-11-20T00:32:04.308Z,5.07
2022-11-20T00:34:30.831Z,5.18
2022-11-20T00:36:57.307Z,4.35
2022-11-20T00:39:24.005Z,4.93
2022-11-20T00:41:51.103Z,5.35
2022-11-20T00:44:17.613Z,4.63
2022-11-20T00:46:44.122Z,4.22
2022-11-20T00:49:10.593Z,4.05
2022-11-20T00:51:37.090Z,4.25
2022-11-20T00:54:03.644Z,4.72
2022-11-20T00:56:30.179Z,4.20
2022-11-20T00:58:59.734Z,5.30
2022-11-20T01:01:27.165Z,5.22
2022-11-20T01:03:57.612Z,4.60
2022-11-20T01:06:29.092Z,4.10
2022-11-20T01:08:57.878Z,4.47
2022-11-20T01:11:27.642Z,4.78
2022-11-20T01:13:55.491Z,4.50
2022-11-20T01:16:29.309Z,4.57
2022-11-20T01:18:58.824Z,3.97
2022-11-20T01:21:30.683Z,4.45
2022-11-20T01:26:28.982Z,4.03
2022-11-20T01:28:56.232Z,3.58
2022-11-20T01:31:27.530Z,3.85
2022-11-20T01:33:56.571Z,3.47
2022-11-20T01:36:24.935Z,3.00
2022-11-20T01:38:56.405Z,3.10
2022-11-20T01:41:42.494Z,3.50
2022-11-20T01:44:12.527Z,2.92
2022-11-20T01:47:00.069Z,3.28
2022-11-20T01:49:35.578Z,3.22
2022-11-20T01:52:24.111Z,2.88
2022-11-20T01:54:59.902Z,3.00
2022-11-20T01:57:29.172Z,3.15
2022-11-20T02:00:01.098Z,2.85
2022-11-20T02:02:28.319Z,2.97
2022-11-20T02:05:01.980Z,2.60
2022-11-20T02:07:28.854Z,2.70
2022-11-20T02:09:58.683Z,2.78
2022-11-20T02:12:44.029Z,2.47
2022-11-20T02:15:10.748Z,2.45
2022-11-20T02:17:37.382Z,2.20
2022-11-20T02:20:05.349Z,2.25
2022-11-20T02:22:43.882Z,2.55
2022-11-20T02:25:11.333Z,2.20
2022-11-20T02:27:37.796Z,2.20
2022-11-20T02:30:11.815Z,2.38
2022-11-20T02:32:39.129Z,2.17
2022-11-20T02:35:10.296Z,1.98
2022-11-20T02:37:41.867Z,1.60
2022-11-20T02:40:08.872Z,2.17
2022-11-20T02:42:37.118Z,1.80
2022-11-20T02:45:05.132Z,1.80
2022-11-20T02:47:31.979Z,1.80
2022-11-20T02:49:58.525Z,1.90
2022-11-20T02:52:25.520Z,2.10
2022-11-20T02:54:52.154Z,1.80
2022-11-20T02:57:18.734Z,1.90
2022-11-20T02:59:45.210Z,1.83
2022-11-20T03:02:11.769Z,1.80
2022-11-20T03:04:38.261Z,2.10
2022-11-20T03:07:05.015Z,2.05
2022-11-20T03:09:31.705Z,1.90
2022-11-20T03:11:58.176Z,2.10
2022-11-20T03:14:24.690Z,2.20
2022-11-20T03:16:51.187Z,1.70
2022-11-20T03:19:21.424Z,2.20
2022-11-20T03:21:48.284Z,1.90
2022-11-20T03:24:15.253Z,1.70
2022-11-20T03:26:41.988Z,1.42
2022-11-20T03:29:09.005Z,1.60
2022-11-20T03:31:38.270Z,1.83
2022-11-20T03:34:05.325Z,1.63
2022-11-20T03:36:35.287Z,1.77
2022-11-20T03:39:01.802Z,1.58
2022-11-20T03:41:36.256Z,1.60
2022-11-20T03:44:05.065Z,1.80
2022-11-20T03:46:32.161Z,1.60
2022-11-20T03:48:58.979Z,1.60
2022-11-20T03:51:26.640Z,1.50
2022-11-20T03:53:58.255Z,1.55
2022-11-20T03:56:27.520Z,1.60
2022-11-20T03:58:54.335Z,1.75
2022-11-20T04:01:23.231Z,1.52
2022-11-20T04:03:52.133Z,1.50
2022-11-20T04:06:25.794Z,1.50
2022-11-20T04:08:54.705Z,1.60
2022-11-20T04:11:32.390Z,1.50
2022-11-20T04:14:01.111Z,1.55
2022-11-20T04:16:30.613Z,1.80
2022-11-20T04:19:02.101Z,1.50
2022-11-20T04:21:29.389Z,1.50
2022-11-20T04:23:57.840Z,1.70
2022-11-20T04:26:26.698Z,1.58
2022-11-20T04:28:53.193Z,1.50
2022-11-20T04:31:28.184Z,1.35
2022-11-20T04:33:55.090Z,1.48
2022-11-20T04:36:23.858Z,1.40
2022-11-20T04:39:03.940Z,1.48
2022-11-20T04:41:33.164Z,1.50
2022-11-20T04:44:03.919Z,1.40
2022-11-20T04:46:35.977Z,1.63
2022-11-20T04:49:02.498Z,1.50
2022-11-20T04:51:29.158Z,1.52
2022-11-20T04:53:55.796Z,1.60
2022-11-20T04:56:22.455Z,1.50
2022-11-20T04:58:49.113Z,1.50
2022-11-20T05:01:18.968Z,1.52
2022-11-20T05:03:46.278Z,1.70
2022-11-20T05:06:15.938Z,1.45
2022-11-20T05:08:43.151Z,1.65
2022-11-20T05:11:14.662Z,1.95
2022-11-20T05:13:41.596Z,1.52
2022-11-20T05:16:11.024Z,1.65
2022-11-20T05:18:38.944Z,1.50
2022-11-20T05:21:06.219Z,1.70
2022-11-20T05:23:33.514Z,1.48
2022-11-20T05:26:00.283Z,1.50
2022-11-20T05:28:28.473Z,1.73
2022-11-20T05:30:55.360Z,1.60
2022-11-20T05:33:22.287Z,1.52
2022-11-20T05:35:49.447Z,1.45
2022-11-20T05:38:16.338Z,1.70
2022-11-20T05:40:42.905Z,1.70
2022-11-20T05:43:09.444Z,1.75
2022-11-20T05:45:36.167Z,1.90
2022-11-20T05:48:02.750Z,1.83
2022-11-20T05:50:29.613Z,1.77
2022-11-20T05:52:58.543Z,1.80
2022-11-20T05:55:25.016Z,1.80
2022-11-20T05:57:52.874Z,1.70
2022-11-20T06:00:19.373Z,1.92
2022-11-20T06:02:45.884Z,2.10
2022-11-20T06:05:12.391Z,2.30
2022-11-20T06:07:38.945Z,3.60
2022-11-20T06:10:08.930Z,6.05
2022-11-20T06:12:35.610Z,9.27
2022-11-20T06:15:02.107Z,4.35
2022-11-20T06:17:28.601Z,4.25
2022-11-20T06:19:55.121Z,3.40
2022-11-20T06:22:21.640Z,3.35
2022-11-20T06:24:48.702Z,3.40
2022-11-20T06:27:15.544Z,3.60
2022-11-20T06:29:42.025Z,4.90
2022-11-20T06:32:08.541Z,4.45
2022-11-20T06:34:34.980Z,3.88
2022-11-20T06:37:01.530Z,4.43
2022-11-20T06:39:28.108Z,4.70
2022-11-20T06:41:58.737Z,4.20
2022-11-20T06:44:25.987Z,4.55
2022-11-20T06:46:52.471Z,2.90
2022-11-20T06:49:19.179Z,2.30
2022-11-20T06:51:45.803Z,2.33
2022-11-20T06:54:12.301Z,2.50
2022-11-20T06:56:38.738Z,2.65
2022-11-20T06:59:07.049Z,2.40
2022-11-20T07:01:33.612Z,3.83
2022-11-20T07:04:00.142Z,4.50
2022-11-20T07:06:26.651Z,3.45
2022-11-20T07:08:55.682Z,3.90
2022-11-20T07:11:22.140Z,3.63
2022-11-20T07:13:48.623Z,3.22
2022-11-20T07:16:15.198Z,3.03
2022-11-20T07:18:44.815Z,2.40
2022-11-20T07:21:15.827Z,2.35
2022-11-20T07:23:42.320Z,2.50
2022-11-20T07:26:11.273Z,2.50
2022-11-20T07:28:38.313Z,2.33
2022-11-20T07:31:05.928Z,2.15
2022-11-20T07:33:32.647Z,2.40
2022-11-20T07:36:02.620Z,2.60
2022-11-20T07:38:29.387Z,2.40
2022-11-20T07:40:57.666Z,2.20
2022-11-20T07:43:26.045Z,2.80
2022-11-20T07:45:52.556Z,2.90
2022-11-20T07:48:18.999Z,2.53
2022-11-20T07:50:45.529Z,2.35
2022-11-20T07:53:13.347Z,2.63
2022-11-20T07:55:39.792Z,3.78
2022-11-20T07:58:06.568Z,5.45
2022-11-20T08:00:33.095Z,7.72
2022-11-20T08:02:59.710Z,5.90
2022-11-20T08:05:26.203Z,3.65
2022-11-20T08:07:52.737Z,2.70
2022-11-20T08:10:19.402Z,3.10
2022-11-20T08:13:09.382Z,2.92
2022-11-20T08:15:36.649Z,3.33
2022-11-20T08:18:30.043Z,3.45
2022-11-20T08:23:23.498Z,3.33
2022-11-20T08:25:51.911Z,6.57
2022-11-20T08:28:21.669Z,5.18
2022-11-20T08:30:48.920Z,6.35
2022-11-20T08:33:15.476Z,5.65
2022-11-20T08:35:42.660Z,4.38
2022-11-20T08:38:10.033Z,4.10
2022-11-20T08:40:36.609Z,4.35
2022-11-20T08:43:03.152Z,4.15
2022-11-20T08:45:34.059Z,3.67
2022-11-20T08:48:03.148Z,3.72
2022-11-20T08:50:30.210Z,3.65
2022-11-20T08:52:56.685Z,3.55
2022-11-20T08:55:26.686Z,3.80
2022-11-20T08:57:53.152Z,3.80
2022-11-20T09:00:19.799Z,4.53
2022-11-20T09:02:46.287Z,4.13
2022-11-20T09:05:12.844Z,3.78
2022-11-20T09:07:39.310Z,4.35
2022-11-20T09:12:53.903Z,3.80
2022-11-20T09:15:20.468Z,4.00
2022-11-20T09:17:53.320Z,4.95
2022-11-20T09:20:20.094Z,5.07
2022-11-20T09:22:46.584Z,5.28
2022-11-20T09:25:14.545Z,5.68
2022-11-20T09:27:44.537Z,7.13
2022-11-20T09:30:11.546Z,6.82
2022-11-20T09:32:40.306Z,6.53
2022-11-20T09:35:07.421Z,7.13
2022-11-20T09:37:33.883Z,7.45
2022-11-20T09:40:00.378Z,7.22
2022-11-20T09:42:48.407Z,6.88
2022-11-20T09:45:26.155Z,6.85
2022-11-20T09:48:19.522Z,7.15
2022-11-20T09:51:16.970Z,7.05
2022-11-20T09:54:14.195Z,6.60
2022-11-20T09:56:45.013Z,7.13
2022-11-20T09:59:37.545Z,6.90
2022-11-20T10:02:16.074Z,7.55
2022-11-20T10:04:48.766Z,7.68
2022-11-20T10:07:32.636Z,8.00
2022-11-20T10:10:00.578Z,7.18
2022-11-20T10:13:01.618Z,7.50
2022-11-20T10:15:43.318Z,15.23
2022-11-20T10:18:28.528Z,10.65
2022-11-20T10:21:19.027Z,8.02
2022-11-20T10:24:04.905Z,7.55
2022-11-20T10:26:34.376Z,7.50
2022-11-20T10:29:35.134Z,7.22
2022-11-20T10:32:05.552Z,8.65
2022-11-20T10:35:02.601Z,9.50
2022-11-20T10:37:32.102Z,9.20
2022-11-20T10:40:18.256Z,8.10
2022-11-20T10:42:52.072Z,7.70
2022-11-20T10:45:30.515Z,9.50
2022-11-20T10:48:11.012Z,9.00
2022-11-20T10:50:41.264Z,7.43
2022-11-20T10:53:44.602Z,7.55
2022-11-20T10:56:19.461Z,6.93
2022-11-20T10:59:07.618Z,6.68
2022-11-20T11:01:42.942Z,5.45
2022-11-20T11:04:44.030Z,4.63
2022-11-20T11:07:16.399Z,3.80
2022-11-20T11:09:49.659Z,4.30
2022-11-20T11:12:16.696Z,4.32
2022-11-20T11:14:54.435Z,5.80
2022-11-20T11:17:26.565Z,4.40
2022-11-20T11:20:00.614Z,5.93
2022-11-20T11:22:30.435Z,3.22
2022-11-20T11:24:56.976Z,4.50
2022-11-20T11:27:23.506Z,4.28
2022-11-20T11:29:49.967Z,2.90
2022-11-20T11:32:22.644Z,4.03
2022-11-20T11:35:03.931Z,9.05
2022-11-20T11:37:39.630Z,5.50
2022-11-20T11:40:24.794Z,5.28
2022-11-20T11:43:01.743Z,3.47
2022-11-20T11:45:28.516Z,5.43
2022-11-20T11:47:57.542Z,2.83
2022-11-20T11:50:29.320Z,2.35
2022-11-20T11:53:15.745Z,2.30
2022-11-20T11:55:47.387Z,2.53
2022-11-20T11:58:23.039Z,3.10
2022-11-20T12:01:05.178Z,3.15
2022-11-20T12:03:40.256Z,2.83
2022-11-20T12:06:13.012Z,2.80
2022-11-20T12:09:12.360Z,2.60
2022-11-20T12:11:55.183Z,3.00
2022-11-20T12:14:29.472Z,3.42
2022-11-20T12:16:58.485Z,3.17
2022-11-20T12:19:25.777Z,4.20
2022-11-20T12:22:00.016Z,4.13
2022-11-20T12:24:40.049Z,5.25
2022-11-20T12:27:16.231Z,5.70
2022-11-20T12:29:54.891Z,6.07
2022-11-20T12:32:55.225Z,5.97
2022-11-20T12:35:41.396Z,5.55
2022-11-20T12:38:32.597Z,5.68
2022-11-20T12:41:40.512Z,6.00
2022-11-20T12:44:28.440Z,6.20
2022-11-20T12:47:16.358Z,5.60
2022-11-20T12:49:54.605Z,6.32
2022-11-20T12:52:34.925Z,8.15
2022-11-20T12:55:16.712Z,8.18
2022-11-20T12:57:58.077Z,5.75
2022-11-20T13:00:28.836Z,6.07
2022-11-20T13:02:58.324Z,9.63
2022-11-20T13:05:55.724Z,10.25
2022-11-20T13:08:26.922Z,9.52
2022-11-20T13:11:37.839Z,9.45
2022-11-20T13:14:30.498Z,7.38
2022-11-20T13:17:06.762Z,4.72
2022-11-20T13:19:34.116Z,4.95
2022-11-20T13:22:00.749Z,4.68
2022-11-20T13:24:31.677Z,4.75
2022-11-20T13:27:05.665Z,5.00
2022-11-20T13:29:34.053Z,4.88
2022-11-20T13:32:27.056Z,5.15
2022-11-20T13:34:56.096Z,5.53
2022-11-20T13:37:30.905Z,6.07
2022-11-20T13:40:09.461Z,5.30
2022-11-20T13:42:52.607Z,3.45
2022-11-20T13:45:28.660Z,3.60
2022-11-20T13:47:56.517Z,3.85
2022-11-20T13:50:37.520Z,2.80
2022-11-20T13:53:09.857Z,2.42
2022-11-20T13:55:57.270Z,2.38
2022-11-20T13:58:51.441Z,2.70
2022-11-20T14:01:20.956Z,2.50
2022-11-20T14:04:05.714Z,2.40
2022-11-20T14:06:39.747Z,2.63
2022-11-20T14:09:06.233Z,2.80
2022-11-20T14:11:32.779Z,2.67
2022-11-20T14:14:22.007Z,2.67
2022-11-20T14:16:49.728Z,2.65
2022-11-20T14:19:22.251Z,3.20
2022-11-20T14:21:52.255Z,3.15
2022-11-20T14:24:24.315Z,2.97
2022-11-20T14:26:52.699Z,2.92
2022-11-20T14:29:22.565Z,3.47
2022-11-20T14:31:54.290Z,3.08
2022-11-20T14:34:26.910Z,3.40
2022-11-20T14:36:58.057Z,3.13
2022-11-20T14:39:31.828Z,2.83
2022-11-20T14:41:58.461Z,3.30
2022-11-20T14:44:31.568Z,3.72
2022-11-20T14:47:00.923Z,4.45
2022-11-20T14:49:29.597Z,4.82
2022-11-20T14:52:11.490Z,5.10
2022-11-20T14:54:48.974Z,5.53
2022-11-20T14:57:36.295Z,4.75
2022-11-20T15:00:11.733Z,8.98
2022-11-20T15:02:47.079Z,8.57
2022-11-20T15:05:15.117Z,6.65
2022-11-20T15:07:46.960Z,6.63
2022-11-20T15:15:22.144Z,6.30
2022-11-20T15:17:48.662Z,7.70
2022-11-20T15:20:17.486Z,7.82
2022-11-20T15:22:44.403Z,6.25
2022-11-20T15:25:18.710Z,5.10
2022-11-20T15:27:46.461Z,6.00
2022-11-20T15:30:19.732Z,7.55
2022-11-20T15:32:47.267Z,7.82
2022-11-20T15:35:14.910Z,8.07
2022-11-20T15:37:41.973Z,8.45
2022-11-20T15:40:09.549Z,6.55
2022-11-20T15:42:37.486Z,7.63
2022-11-20T15:45:07.381Z,6.22
2022-11-20T15:47:38.462Z,6.35
2022-11-20T15:50:10.322Z,5.90
2022-11-20T15:55:11.052Z,6.25
2022-11-20T15:57:37.521Z,6.35
2022-11-20T16:00:04.726Z,8.00
2022-11-20T16:02:31.177Z,7.60
2022-11-20T16:04:57.657Z,10.15
2022-11-20T16:07:24.558Z,12.27
2022-11-20T16:09:51.087Z,11.05
2022-11-20T16:12:37.484Z,10.10
2022-11-20T16:15:23.088Z,8.68
2022-11-20T16:17:49.545Z,7.35
2022-11-20T16:20:16.698Z,10.70
2022-11-20T16:22:43.205Z,7.65
2022-11-20T16:25:09.740Z,8.48
2022-11-20T16:27:36.209Z,7.10
2022-11-20T16:30:02.732Z,7.93
2022-11-20T16:32:29.243Z,7.90
2022-11-20T16:34:55.752Z,7.63
2022-11-20T16:37:22.203Z,7.47
2022-11-20T16:39:48.712Z,8.65
2022-11-20T16:42:15.141Z,9.23
2022-11-20T16:44:41.615Z,10.10
2022-11-20T16:47:08.079Z,10.90
2022-11-20T16:49:34.525Z,15.98
2022-11-20T16:52:01.098Z,25.17
2022-11-20T16:54:27.711Z,26.52
2022-11-20T16:56:54.577Z,23.92
2022-11-20T16:59:21.034Z,17.92
2022-11-20T17:01:48.556Z,16.50
2022-11-20T17:04:16.296Z,16.58
2022-11-20T17:06:44.468Z,16.17
2022-11-20T17:09:11.333Z,17.13
2022-11-20T17:11:38.382Z,15.98
2022-11-20T17:14:07.367Z,12.88
2022-11-20T17:16:35.547Z,14.10
2022-11-20T17:19:03.927Z,14.07
2022-11-20T17:21:32.354Z,12.20
2022-11-20T17:24:06.514Z,14.13
2022-11-20T17:26:34.113Z,15.43
2022-11-20T17:29:06.243Z,14.35
2022-11-20T17:31:34.358Z,14.05
2022-11-20T17:34:01.627Z,12.23
2022-11-20T17:36:29.375Z,10.65
2022-11-20T17:38:55.836Z,11.15
2022-11-20T17:41:25.194Z,9.95
2022-11-20T17:43:59.922Z,9.77
2022-11-20T17:46:28.996Z,10.13
2022-11-20T17:48:56.293Z,11.10
2022-11-20T17:51:26.096Z,11.30
2022-11-20T17:53:55.513Z,11.48
2022-11-20T17:56:40.580Z,13.85
2022-11-20T17:59:13.175Z,13.88
2022-11-20T18:01:42.957Z,13.48
2022-11-20T18:04:10.747Z,14.63
2022-11-20T18:06:38.171Z,15.23
2022-11-20T18:09:05.952Z,19.02
2022-11-20T18:11:35.061Z,15.00
2022-11-20T18:14:22.574Z,14.30
2022-11-20T18:16:52.476Z,13.63
2022-11-20T18:19:22.744Z,16.60
2022-11-20T18:21:49.465Z,15.88
2022-11-20T18:24:16.316Z,14.82
2022-11-20T18:26:44.730Z,15.70
2022-11-20T18:29:13.172Z,15.75
2022-11-20T18:31:40.562Z,14.85
2022-11-20T18:34:13.449Z,14.63
2022-11-20T18:36:40.753Z,14.23
2022-11-20T18:39:07.411Z,14.38
2022-11-20T18:41:52.226Z,13.80
2022-11-20T18:44:43.875Z,14.43
2022-11-20T18:47:14.803Z,14.65
2022-11-20T18:49:42.694Z,14.85
2022-11-20T18:52:13.062Z,14.48
2022-11-20T18:54:39.558Z,14.27
2022-11-20T18:57:06.119Z,13.20
2022-11-20T18:59:32.876Z,11.27
2022-11-20T19:02:02.055Z,11.45
2022-11-20T19:04:30.213Z,11.02
2022-11-20T19:06:56.894Z,10.27
2022-11-20T19:09:24.160Z,9.38
2022-11-20T19:11:51.494Z,9.05
2022-11-20T19:14:18.180Z,9.90
2022-11-20T19:16:44.778Z,9.65
2022-11-20T19:19:11.460Z,8.40
2022-11-20T19:21:38.095Z,7.68
2022-11-20T19:24:05.752Z,7.10
2022-11-20T19:26:35.511Z,6.13
2022-11-20T19:29:02.359Z,6.50
2022-11-20T19:31:28.875Z,7.15
2022-11-20T19:33:58.035Z,6.55
2022-11-20T19:36:28.086Z,6.72
2022-11-20T19:38:55.451Z,7.72
2022-11-20T19:41:28.945Z,6.63
2022-11-20T19:44:00.414Z,7.70
2022-11-20T19:46:28.646Z,7.07
2022-11-20T19:48:55.607Z,7.20
2022-11-20T19:51:28.014Z,7.50
2022-11-20T19:53:55.917Z,8.18
2022-11-20T19:56:22.793Z,7.93
2022-11-20T19:58:49.505Z,7.80
2022-11-20T20:01:19.286Z,8.57
2022-11-20T20:03:46.787Z,7.72
2022-11-20T20:06:16.025Z,8.65
2022-11-20T20:08:43.944Z,8.82
2022-11-20T20:11:19.059Z,8.60
2022-11-20T20:13:50.379Z,9.05
2022-11-20T20:16:19.673Z,8.55
2022-11-20T20:18:46.226Z,8.65
2022-11-20T20:21:15.149Z,9.43
2022-11-20T20:23:42.321Z,9.63
2022-11-20T20:26:09.988Z,9.23
2022-11-20T20:28:37.588Z,9.82
2022-11-20T20:31:15.598Z,9.20
2022-11-20T20:33:43.008Z,9.25
2022-11-20T20:36:11.675Z,9.80
2022-11-20T20:38:38.165Z,10.55
2022-11-20T20:41:04.691Z,9.88
2022-11-20T20:43:31.498Z,10.35
2022-11-20T20:45:58.264Z,10.20
2022-11-20T20:48:25.453Z,10.55
2022-11-20T20:51:04.717Z,9.60
2022-11-20T20:53:31.312Z,10.32
2022-11-20T20:56:00.217Z,9.10
2022-11-20T20:58:28.359Z,10.30
2022-11-20T21:00:55.391Z,10.18
2022-11-20T21:03:21.882Z,10.45
2022-11-20T21:05:55.674Z,7.80
2022-11-20T21:08:22.212Z,8.57
2022-11-20T21:10:49.946Z,8.20
2022-11-20T21:13:20.455Z,6.70
2022-11-20T21:15:49.583Z,5.97
2022-11-20T21:18:18.131Z,6.35
2022-11-20T21:21:05.848Z,5.57
2022-11-20T21:23:33.406Z,7.70
2022-11-20T21:26:06.721Z,7.65
2022-11-20T21:28:34.891Z,5.88
2022-11-20T21:31:09.949Z,7.20
2022-11-20T21:33:50.221Z,5.40
2022-11-20T21:36:19.040Z,4.90
2022-11-20T21:38:46.079Z,5.03
2022-11-20T21:41:14.636Z,5.78
2022-11-20T21:43:42.841Z,5.63
2022-11-20T21:46:12.784Z,6.22
2022-11-20T21:48:42.452Z,7.05
2022-11-20T21:51:12.826Z,7.40
2022-11-20T21:53:39.635Z,7.00
2022-11-20T21:56:08.194Z,8.70
2022-11-20T21:58:36.043Z,7.57
2022-11-20T22:01:13.831Z,7.75
2022-11-20T22:03:41.241Z,7.20
2022-11-20T22:06:09.708Z,6.43
2022-11-20T22:08:38.344Z,6.88
2022-11-20T22:11:10.777Z,6.55
2022-11-20T22:13:55.618Z,6.40
2022-11-20T22:16:22.919Z,6.55
2022-11-20T22:18:53.963Z,8.00
2022-11-20T22:21:22.816Z,7.28
2022-11-20T22:23:50.105Z,8.85
2022-11-20T22:26:19.371Z,10.05
2022-11-20T22:28:50.814Z,11.38
2022-11-20T22:31:19.701Z,11.52
2022-11-20T22:33:46.182Z,11.13
2022-11-20T22:36:15.695Z,11.45
2022-11-20T22:38:42.419Z,11.32
2022-11-20T22:41:16.911Z,12.10
2022-11-20T22:43:44.218Z,11.57
2022-11-20T22:46:13.328Z,12.07
2022-11-20T22:48:51.782Z,12.55
2022-11-20T22:51:20.319Z,13.07
2022-11-20T22:53:47.105Z,13.18
2022-11-20T22:56:14.799Z,14.13
2022-11-20T22:58:43.747Z,15.07
2022-11-20T23:01:21.428Z,15.55
2022-11-20T23:03:50.335Z,15.93
2022-11-20T23:06:19.071Z,16.10
2022-11-20T23:08:46.589Z,17.33
2022-11-20T23:11:24.344Z,17.35
2022-11-20T23:13:57.934Z,17.45
2022-11-20T23:16:28.266Z,16.88
2022-11-20T23:18:59.913Z,16.40
2022-11-20T23:21:26.788Z,16.45
2022-11-20T23:23:55.414Z,18.15
2022-11-20T23:26:27.182Z,16.23
2022-11-20T23:28:55.294Z,16.05
2022-11-20T23:31:22.107Z,16.58
2022-11-20T23:33:52.348Z,16.38
2022-11-20T23:36:23.478Z,15.85
2022-11-20T23:38:49.961Z,15.75
2022-11-20T23:41:19.687Z,16.35
2022-11-20T23:43:46.192Z,15.43
2022-11-20T23:46:16.424Z,14.38
2022-11-20T23:48:48.812Z,14.15
2022-11-20T23:51:37.436Z,16.40
2022-11-20T23:54:05.032Z,16.98
2022-11-20T23:56:33.787Z,17.77
2022-11-20T23:59:00.477Z,16.85
